sensor_id;sensor_type;location;lat;lon;timestamp;P1;durP1;ratioP1;P2;durP2;ratioP2
78901;SDS011;70441;44.758;37.686;2023-08-06T00:00:57;11.73;;;4.70;;
78901;SDS011;70441;44.758;37.686;2023-08-06T00:01:58;12.65;;;4.90;;
78901;SDS011;70441;44.758;37.686;2023-08-06T00:03:00;15.55;;;4.97;;
78901;SDS011;70441;44.758;37.686;2023-08-06T00:04:01;13.63;;;4.93;;
78901;SDS011;70441;44.758;37.686;2023-08-06T00:05:03;9.20;;;5.00;;
78901;SDS011;70441;44.758;37.686;2023-08-06T00:06:05;10.38;;;4.95;;
78901;SDS011;70441;44.758;37.686;2023-08-06T00:07:07;10.50;;;4.82;;
78901;SDS011;70441;44.758;37.686;2023-08-06T00:08:08;9.50;;;4.75;;
78901;SDS011;70441;44.758;37.686;2023-08-06T00:09:09;10.20;;;4.90;;
78901;SDS011;70441;44.758;37.686;2023-08-06T00:10:11;11.82;;;4.70;;
78901;SDS011;70441;44.758;37.686;2023-08-06T00:11:12;10.13;;;4.72;;
78901;SDS011;70441;44.758;37.686;2023-08-06T00:12:14;9.13;;;5.07;;
78901;SDS011;70441;44.758;37.686;2023-08-06T00:13:15;10.40;;;4.82;;
78901;SDS011;70441;44.758;37.686;2023-08-06T00:14:16;8.82;;;4.95;;
78901;SDS011;70441;44.758;37.686;2023-08-06T00:15:18;13.07;;;5.13;;
78901;SDS011;70441;44.758;37.686;2023-08-06T00:16:20;9.48;;;5.10;;
78901;SDS011;70441;44.758;37.686;2023-08-06T00:17:21;11.13;;;5.10;;
78901;SDS011;70441;44.758;37.686;2023-08-06T00:18:22;9.98;;;5.10;;
78901;SDS011;70441;44.758;37.686;2023-08-06T00:19:24;10.27;;;5.10;;
78901;SDS011;70441;44.758;37.686;2023-08-06T00:20:25;12.05;;;5.00;;
78901;SDS011;70441;44.758;37.686;2023-08-06T00:21:26;11.35;;;4.82;;
78901;SDS011;70441;44.758;37.686;2023-08-06T00:22:28;12.00;;;5.50;;
78901;SDS011;70441;44.758;37.686;2023-08-06T00:23:29;11.93;;;5.03;;
78901;SDS011;70441;44.758;37.686;2023-08-06T00:24:30;10.02;;;4.82;;
78901;SDS011;70441;44.758;37.686;2023-08-06T00:25:32;8.65;;;4.88;;
78901;SDS011;70441;44.758;37.686;2023-08-06T00:26:33;17.85;;;5.10;;
78901;SDS011;70441;44.758;37.686;2023-08-06T00:27:34;13.02;;;5.20;;
78901;SDS011;70441;44.758;37.686;2023-08-06T00:28:36;11.63;;;5.05;;
78901;SDS011;70441;44.758;37.686;2023-08-06T00:29:37;9.48;;;4.00;;
78901;SDS011;70441;44.758;37.686;2023-08-06T00:30:39;14.25;;;5.13;;
78901;SDS011;70441;44.758;37.686;2023-08-06T00:31:40;10.05;;;4.78;;
78901;SDS011;70441;44.758;37.686;2023-08-06T00:32:47;9.85;;;4.82;;
78901;SDS011;70441;44.758;37.686;2023-08-06T00:33:48;12.07;;;5.35;;
78901;SDS011;70441;44.758;37.686;2023-08-06T00:34:49;9.00;;;5.13;;
78901;SDS011;70441;44.758;37.686;2023-08-06T00:35:51;12.45;;;4.60;;
78901;SDS011;70441;44.758;37.686;2023-08-06T00:36:52;9.18;;;4.95;;
78901;SDS011;70441;44.758;37.686;2023-08-06T00:38:56;12.57;;;4.80;;
78901;SDS011;70441;44.758;37.686;2023-08-06T00:39:57;10.70;;;5.15;;
78901;SDS011;70441;44.758;37.686;2023-08-06T00:40:58;8.52;;;4.63;;
78901;SDS011;70441;44.758;37.686;2023-08-06T00:42:00;9.95;;;5.00;;
78901;SDS011;70441;44.758;37.686;2023-08-06T00:43:01;11.98;;;5.15;;
78901;SDS011;70441;44.758;37.686;2023-08-06T00:44:02;9.80;;;5.20;;
78901;SDS011;70441;44.758;37.686;2023-08-06T00:45:04;10.25;;;4.85;;
78901;SDS011;70441;44.758;37.686;2023-08-06T00:46:08;9.00;;;5.05;;
78901;SDS011;70441;44.758;37.686;2023-08-06T00:48:11;11.00;;;5.28;;
78901;SDS011;70441;44.758;37.686;2023-08-06T00:49:13;11.32;;;5.18;;
78901;SDS011;70441;44.758;37.686;2023-08-06T00:50:14;13.98;;;5.15;;
78901;SDS011;70441;44.758;37.686;2023-08-06T00:51:17;12.13;;;5.28;;
78901;SDS011;70441;44.758;37.686;2023-08-06T00:52:18;11.02;;;5.30;;
78901;SDS011;70441;44.758;37.686;2023-08-06T00:53:19;10.65;;;5.13;;
78901;SDS011;70441;44.758;37.686;2023-08-06T00:54:21;13.18;;;5.05;;
78901;SDS011;70441;44.758;37.686;2023-08-06T00:55:24;10.20;;;5.20;;
78901;SDS011;70441;44.758;37.686;2023-08-06T00:56:25;12.35;;;5.47;;
78901;SDS011;70441;44.758;37.686;2023-08-06T00:57:27;11.55;;;5.50;;
78901;SDS011;70441;44.758;37.686;2023-08-06T00:58:28;10.27;;;5.25;;
78901;SDS011;70441;44.758;37.686;2023-08-06T00:59:30;10.25;;;5.47;;
78901;SDS011;70441;44.758;37.686;2023-08-06T01:00:32;10.43;;;4.90;;
78901;SDS011;70441;44.758;37.686;2023-08-06T01:01:33;11.07;;;5.82;;
78901;SDS011;70441;44.758;37.686;2023-08-06T01:02:35;9.15;;;5.07;;
78901;SDS011;70441;44.758;37.686;2023-08-06T01:03:37;11.70;;;5.47;;
78901;SDS011;70441;44.758;37.686;2023-08-06T01:04:38;16.48;;;5.47;;
78901;SDS011;70441;44.758;37.686;2023-08-06T01:05:40;9.90;;;4.70;;
78901;SDS011;70441;44.758;37.686;2023-08-06T01:06:45;10.38;;;5.00;;
78901;SDS011;70441;44.758;37.686;2023-08-06T01:09:20;9.57;;;5.53;;
78901;SDS011;70441;44.758;37.686;2023-08-06T01:12:17;11.00;;;5.50;;
78901;SDS011;70441;44.758;37.686;2023-08-06T01:13:33;10.35;;;5.38;;
78901;SDS011;70441;44.758;37.686;2023-08-06T01:14:53;10.85;;;5.50;;
78901;SDS011;70441;44.758;37.686;2023-08-06T01:16:01;10.23;;;5.63;;
78901;SDS011;70441;44.758;37.686;2023-08-06T01:17:04;10.38;;;5.00;;
78901;SDS011;70441;44.758;37.686;2023-08-06T01:18:06;11.45;;;5.30;;
78901;SDS011;70441;44.758;37.686;2023-08-06T01:19:25;10.30;;;5.93;;
78901;SDS011;70441;44.758;37.686;2023-08-06T01:20:29;12.90;;;5.72;;
78901;SDS011;70441;44.758;37.686;2023-08-06T01:21:32;9.88;;;5.20;;
78901;SDS011;70441;44.758;37.686;2023-08-06T01:22:33;11.90;;;5.82;;
78901;SDS011;70441;44.758;37.686;2023-08-06T01:23:35;8.77;;;5.65;;
78901;SDS011;70441;44.758;37.686;2023-08-06T01:24:36;12.02;;;5.57;;
78901;SDS011;70441;44.758;37.686;2023-08-06T01:27:08;9.55;;;5.25;;
78901;SDS011;70441;44.758;37.686;2023-08-06T01:28:40;14.02;;;5.38;;
78901;SDS011;70441;44.758;37.686;2023-08-06T01:31:04;13.07;;;5.68;;
78901;SDS011;70441;44.758;37.686;2023-08-06T01:32:13;9.80;;;5.68;;
78901;SDS011;70441;44.758;37.686;2023-08-06T01:33:18;9.80;;;5.43;;
78901;SDS011;70441;44.758;37.686;2023-08-06T01:34:23;14.07;;;5.45;;
78901;SDS011;70441;44.758;37.686;2023-08-06T01:35:29;10.65;;;5.63;;
78901;SDS011;70441;44.758;37.686;2023-08-06T01:36:33;10.95;;;6.03;;
78901;SDS011;70441;44.758;37.686;2023-08-06T01:37:34;12.15;;;5.70;;
78901;SDS011;70441;44.758;37.686;2023-08-06T01:38:38;14.52;;;5.57;;
78901;SDS011;70441;44.758;37.686;2023-08-06T01:39:39;10.50;;;5.60;;
78901;SDS011;70441;44.758;37.686;2023-08-06T01:40:43;11.80;;;5.80;;
78901;SDS011;70441;44.758;37.686;2023-08-06T01:41:44;17.17;;;5.82;;
78901;SDS011;70441;44.758;37.686;2023-08-06T01:42:45;10.90;;;5.88;;
78901;SDS011;70441;44.758;37.686;2023-08-06T01:43:48;11.40;;;5.85;;
78901;SDS011;70441;44.758;37.686;2023-08-06T01:44:50;10.88;;;5.40;;
78901;SDS011;70441;44.758;37.686;2023-08-06T01:45:51;9.68;;;5.18;;
78901;SDS011;70441;44.758;37.686;2023-08-06T01:46:52;11.68;;;6.03;;
78901;SDS011;70441;44.758;37.686;2023-08-06T01:47:53;10.40;;;6.10;;
78901;SDS011;70441;44.758;37.686;2023-08-06T01:48:55;11.70;;;6.00;;
78901;SDS011;70441;44.758;37.686;2023-08-06T01:49:56;10.85;;;6.13;;
78901;SDS011;70441;44.758;37.686;2023-08-06T01:50:57;12.30;;;6.20;;
78901;SDS011;70441;44.758;37.686;2023-08-06T01:51:59;10.77;;;5.70;;
78901;SDS011;70441;44.758;37.686;2023-08-06T01:53:00;11.57;;;5.97;;
78901;SDS011;70441;44.758;37.686;2023-08-06T01:54:03;11.30;;;6.00;;
78901;SDS011;70441;44.758;37.686;2023-08-06T01:55:04;12.68;;;5.70;;
78901;SDS011;70441;44.758;37.686;2023-08-06T01:56:05;12.13;;;6.05;;
78901;SDS011;70441;44.758;37.686;2023-08-06T01:57:07;13.85;;;6.10;;
78901;SDS011;70441;44.758;37.686;2023-08-06T01:58:08;11.75;;;6.25;;
78901;SDS011;70441;44.758;37.686;2023-08-06T01:59:09;13.55;;;6.00;;
78901;SDS011;70441;44.758;37.686;2023-08-06T02:00:11;15.55;;;6.75;;
78901;SDS011;70441;44.758;37.686;2023-08-06T02:01:16;13.95;;;6.32;;
78901;SDS011;70441;44.758;37.686;2023-08-06T02:02:17;10.57;;;6.10;;
78901;SDS011;70441;44.758;37.686;2023-08-06T02:03:18;17.92;;;5.55;;
78901;SDS011;70441;44.758;37.686;2023-08-06T02:04:23;10.85;;;5.85;;
78901;SDS011;70441;44.758;37.686;2023-08-06T02:05:25;13.63;;;6.13;;
78901;SDS011;70441;44.758;37.686;2023-08-06T02:06:26;11.60;;;6.07;;
78901;SDS011;70441;44.758;37.686;2023-08-06T02:07:27;12.02;;;6.35;;
78901;SDS011;70441;44.758;37.686;2023-08-06T02:08:28;17.23;;;6.93;;
78901;SDS011;70441;44.758;37.686;2023-08-06T02:09:30;19.75;;;6.82;;
78901;SDS011;70441;44.758;37.686;2023-08-06T02:10:31;11.05;;;6.03;;
78901;SDS011;70441;44.758;37.686;2023-08-06T02:11:32;13.85;;;6.55;;
78901;SDS011;70441;44.758;37.686;2023-08-06T02:12:34;14.73;;;6.32;;
78901;SDS011;70441;44.758;37.686;2023-08-06T02:13:35;13.55;;;5.97;;
78901;SDS011;70441;44.758;37.686;2023-08-06T02:14:36;12.57;;;5.72;;
78901;SDS011;70441;44.758;37.686;2023-08-06T02:15:44;13.63;;;5.82;;
78901;SDS011;70441;44.758;37.686;2023-08-06T02:16:48;12.82;;;5.95;;
78901;SDS011;70441;44.758;37.686;2023-08-06T02:17:50;12.63;;;6.15;;
78901;SDS011;70441;44.758;37.686;2023-08-06T02:18:51;11.88;;;5.82;;
78901;SDS011;70441;44.758;37.686;2023-08-06T02:19:59;10.90;;;5.97;;
78901;SDS011;70441;44.758;37.686;2023-08-06T02:21:02;13.82;;;5.85;;
78901;SDS011;70441;44.758;37.686;2023-08-06T02:22:04;12.50;;;5.90;;
78901;SDS011;70441;44.758;37.686;2023-08-06T02:23:05;10.93;;;6.22;;
78901;SDS011;70441;44.758;37.686;2023-08-06T02:24:07;10.80;;;6.13;;
78901;SDS011;70441;44.758;37.686;2023-08-06T02:25:08;12.95;;;6.28;;
78901;SDS011;70441;44.758;37.686;2023-08-06T02:26:10;17.92;;;6.20;;
78901;SDS011;70441;44.758;37.686;2023-08-06T02:27:11;11.80;;;5.82;;
78901;SDS011;70441;44.758;37.686;2023-08-06T02:28:12;12.38;;;6.45;;
78901;SDS011;70441;44.758;37.686;2023-08-06T02:29:14;14.80;;;6.93;;
78901;SDS011;70441;44.758;37.686;2023-08-06T02:30:19;11.10;;;6.55;;
78901;SDS011;70441;44.758;37.686;2023-08-06T02:31:20;13.88;;;6.05;;
78901;SDS011;70441;44.758;37.686;2023-08-06T02:32:27;10.15;;;6.38;;
78901;SDS011;70441;44.758;37.686;2023-08-06T02:33:30;14.02;;;6.03;;
78901;SDS011;70441;44.758;37.686;2023-08-06T02:34:31;12.10;;;6.43;;
78901;SDS011;70441;44.758;37.686;2023-08-06T02:35:32;12.48;;;6.72;;
78901;SDS011;70441;44.758;37.686;2023-08-06T02:36:34;12.02;;;6.32;;
78901;SDS011;70441;44.758;37.686;2023-08-06T02:37:35;11.75;;;6.38;;
78901;SDS011;70441;44.758;37.686;2023-08-06T02:38:37;12.05;;;6.53;;
78901;SDS011;70441;44.758;37.686;2023-08-06T02:39:39;16.48;;;6.53;;
78901;SDS011;70441;44.758;37.686;2023-08-06T02:40:47;14.20;;;6.78;;
78901;SDS011;70441;44.758;37.686;2023-08-06T02:41:48;9.77;;;6.28;;
78901;SDS011;70441;44.758;37.686;2023-08-06T02:42:50;14.55;;;6.03;;
78901;SDS011;70441;44.758;37.686;2023-08-06T02:43:52;11.88;;;6.28;;
78901;SDS011;70441;44.758;37.686;2023-08-06T02:44:53;11.45;;;6.30;;
78901;SDS011;70441;44.758;37.686;2023-08-06T02:45:57;12.68;;;6.15;;
78901;SDS011;70441;44.758;37.686;2023-08-06T02:47:00;16.10;;;6.70;;
78901;SDS011;70441;44.758;37.686;2023-08-06T02:48:02;11.35;;;6.40;;
78901;SDS011;70441;44.758;37.686;2023-08-06T02:49:03;13.35;;;5.70;;
78901;SDS011;70441;44.758;37.686;2023-08-06T02:50:05;12.73;;;6.32;;
78901;SDS011;70441;44.758;37.686;2023-08-06T02:51:06;14.57;;;6.70;;
78901;SDS011;70441;44.758;37.686;2023-08-06T02:52:08;13.88;;;6.45;;
78901;SDS011;70441;44.758;37.686;2023-08-06T02:53:09;15.00;;;6.60;;
78901;SDS011;70441;44.758;37.686;2023-08-06T02:54:12;17.80;;;7.18;;
78901;SDS011;70441;44.758;37.686;2023-08-06T02:55:14;13.27;;;5.93;;
78901;SDS011;70441;44.758;37.686;2023-08-06T02:56:19;10.05;;;6.30;;
78901;SDS011;70441;44.758;37.686;2023-08-06T02:57:31;11.70;;;5.93;;
78901;SDS011;70441;44.758;37.686;2023-08-06T02:58:33;11.93;;;6.25;;
78901;SDS011;70441;44.758;37.686;2023-08-06T02:59:42;13.07;;;7.03;;
78901;SDS011;70441;44.758;37.686;2023-08-06T03:01:04;12.77;;;6.43;;
78901;SDS011;70441;44.758;37.686;2023-08-06T03:02:15;16.63;;;6.30;;
78901;SDS011;70441;44.758;37.686;2023-08-06T03:03:30;13.48;;;6.00;;
78901;SDS011;70441;44.758;37.686;2023-08-06T03:04:34;12.40;;;6.22;;
78901;SDS011;70441;44.758;37.686;2023-08-06T03:05:35;12.65;;;6.30;;
78901;SDS011;70441;44.758;37.686;2023-08-06T03:06:37;13.98;;;6.05;;
78901;SDS011;70441;44.758;37.686;2023-08-06T03:07:38;14.02;;;6.50;;
78901;SDS011;70441;44.758;37.686;2023-08-06T03:08:47;12.60;;;6.30;;
78901;SDS011;70441;44.758;37.686;2023-08-06T03:09:49;14.00;;;6.07;;
78901;SDS011;70441;44.758;37.686;2023-08-06T03:10:50;15.43;;;6.13;;
78901;SDS011;70441;44.758;37.686;2023-08-06T03:11:54;10.02;;;5.85;;
78901;SDS011;70441;44.758;37.686;2023-08-06T03:12:55;14.13;;;6.18;;
78901;SDS011;70441;44.758;37.686;2023-08-06T03:14:59;11.77;;;5.75;;
78901;SDS011;70441;44.758;37.686;2023-08-06T03:16:01;14.05;;;6.13;;
78901;SDS011;70441;44.758;37.686;2023-08-06T03:17:04;13.90;;;6.20;;
78901;SDS011;70441;44.758;37.686;2023-08-06T03:18:06;12.48;;;6.13;;
78901;SDS011;70441;44.758;37.686;2023-08-06T03:19:07;16.25;;;6.55;;
78901;SDS011;70441;44.758;37.686;2023-08-06T03:20:09;10.27;;;5.38;;
78901;SDS011;70441;44.758;37.686;2023-08-06T03:21:10;14.70;;;5.95;;
78901;SDS011;70441;44.758;37.686;2023-08-06T03:22:12;13.18;;;6.15;;
78901;SDS011;70441;44.758;37.686;2023-08-06T03:23:14;10.60;;;6.13;;
78901;SDS011;70441;44.758;37.686;2023-08-06T03:24:15;12.90;;;5.82;;
78901;SDS011;70441;44.758;37.686;2023-08-06T03:25:18;12.35;;;5.75;;
78901;SDS011;70441;44.758;37.686;2023-08-06T03:26:22;16.35;;;6.07;;
78901;SDS011;70441;44.758;37.686;2023-08-06T03:27:24;14.27;;;6.47;;
78901;SDS011;70441;44.758;37.686;2023-08-06T03:28:26;12.15;;;6.25;;
78901;SDS011;70441;44.758;37.686;2023-08-06T03:29:28;10.85;;;6.32;;
78901;SDS011;70441;44.758;37.686;2023-08-06T03:30:31;14.27;;;6.22;;
78901;SDS011;70441;44.758;37.686;2023-08-06T03:31:33;13.13;;;5.75;;
78901;SDS011;70441;44.758;37.686;2023-08-06T03:32:40;11.68;;;6.40;;
78901;SDS011;70441;44.758;37.686;2023-08-06T03:33:41;11.27;;;6.10;;
78901;SDS011;70441;44.758;37.686;2023-08-06T03:34:48;14.07;;;6.15;;
78901;SDS011;70441;44.758;37.686;2023-08-06T03:35:52;11.27;;;5.60;;
78901;SDS011;70441;44.758;37.686;2023-08-06T03:36:53;15.32;;;6.35;;
78901;SDS011;70441;44.758;37.686;2023-08-06T03:37:55;19.00;;;6.60;;
78901;SDS011;70441;44.758;37.686;2023-08-06T03:38:56;16.60;;;6.30;;
78901;SDS011;70441;44.758;37.686;2023-08-06T03:39:58;20.33;;;6.65;;
78901;SDS011;70441;44.758;37.686;2023-08-06T03:40:59;14.30;;;5.88;;
78901;SDS011;70441;44.758;37.686;2023-08-06T03:42:00;15.52;;;6.05;;
78901;SDS011;70441;44.758;37.686;2023-08-06T03:43:02;13.35;;;5.90;;
78901;SDS011;70441;44.758;37.686;2023-08-06T03:44:04;14.27;;;6.30;;
78901;SDS011;70441;44.758;37.686;2023-08-06T03:45:05;12.00;;;6.13;;
78901;SDS011;70441;44.758;37.686;2023-08-06T03:46:07;15.98;;;6.05;;
78901;SDS011;70441;44.758;37.686;2023-08-06T03:47:09;15.38;;;6.53;;
78901;SDS011;70441;44.758;37.686;2023-08-06T03:48:10;10.48;;;5.47;;
78901;SDS011;70441;44.758;37.686;2023-08-06T03:49:12;12.25;;;5.93;;
78901;SDS011;70441;44.758;37.686;2023-08-06T03:50:15;15.05;;;5.72;;
78901;SDS011;70441;44.758;37.686;2023-08-06T03:51:17;10.32;;;6.45;;
78901;SDS011;70441;44.758;37.686;2023-08-06T03:52:20;12.35;;;6.15;;
78901;SDS011;70441;44.758;37.686;2023-08-06T03:53:22;11.88;;;5.57;;
78901;SDS011;70441;44.758;37.686;2023-08-06T03:54:23;14.20;;;5.90;;
78901;SDS011;70441;44.758;37.686;2023-08-06T03:55:25;13.20;;;6.05;;
78901;SDS011;70441;44.758;37.686;2023-08-06T03:57:28;12.43;;;5.72;;
78901;SDS011;70441;44.758;37.686;2023-08-06T03:58:30;11.57;;;5.70;;
78901;SDS011;70441;44.758;37.686;2023-08-06T03:59:33;13.52;;;5.85;;
78901;SDS011;70441;44.758;37.686;2023-08-06T04:00:35;19.85;;;6.57;;
78901;SDS011;70441;44.758;37.686;2023-08-06T04:01:36;18.60;;;6.05;;
78901;SDS011;70441;44.758;37.686;2023-08-06T04:02:38;18.17;;;5.95;;
78901;SDS011;70441;44.758;37.686;2023-08-06T04:03:39;11.93;;;5.75;;
78901;SDS011;70441;44.758;37.686;2023-08-06T04:04:40;10.00;;;5.50;;
78901;SDS011;70441;44.758;37.686;2023-08-06T04:05:41;14.05;;;6.05;;
78901;SDS011;70441;44.758;37.686;2023-08-06T04:06:43;11.27;;;5.30;;
78901;SDS011;70441;44.758;37.686;2023-08-06T04:07:44;15.77;;;6.38;;
78901;SDS011;70441;44.758;37.686;2023-08-06T04:08:45;12.57;;;5.75;;
78901;SDS011;70441;44.758;37.686;2023-08-06T04:10:20;12.10;;;5.85;;
78901;SDS011;70441;44.758;37.686;2023-08-06T04:11:14;16.77;;;6.00;;
78901;SDS011;70441;44.758;37.686;2023-08-06T04:12:16;10.48;;;5.70;;
78901;SDS011;70441;44.758;37.686;2023-08-06T04:13:17;10.75;;;5.07;;
78901;SDS011;70441;44.758;37.686;2023-08-06T04:14:19;12.82;;;5.63;;
78901;SDS011;70441;44.758;37.686;2023-08-06T04:15:21;10.38;;;5.43;;
78901;SDS011;70441;44.758;37.686;2023-08-06T04:16:22;11.30;;;5.55;;
78901;SDS011;70441;44.758;37.686;2023-08-06T04:17:24;15.18;;;5.57;;
78901;SDS011;70441;44.758;37.686;2023-08-06T04:18:25;13.23;;;5.65;;
78901;SDS011;70441;44.758;37.686;2023-08-06T04:19:27;15.13;;;5.82;;
78901;SDS011;70441;44.758;37.686;2023-08-06T04:20:28;11.60;;;5.13;;
78901;SDS011;70441;44.758;37.686;2023-08-06T04:21:29;15.55;;;5.63;;
78901;SDS011;70441;44.758;37.686;2023-08-06T04:22:31;16.45;;;5.60;;
78901;SDS011;70441;44.758;37.686;2023-08-06T04:23:32;10.52;;;5.63;;
78901;SDS011;70441;44.758;37.686;2023-08-06T04:24:37;12.32;;;5.75;;
78901;SDS011;70441;44.758;37.686;2023-08-06T04:26:41;13.57;;;5.30;;
78901;SDS011;70441;44.758;37.686;2023-08-06T04:27:42;14.55;;;5.55;;
78901;SDS011;70441;44.758;37.686;2023-08-06T04:28:45;14.77;;;5.80;;
78901;SDS011;70441;44.758;37.686;2023-08-06T04:29:46;11.02;;;5.22;;
78901;SDS011;70441;44.758;37.686;2023-08-06T04:30:47;14.55;;;5.53;;
78901;SDS011;70441;44.758;37.686;2023-08-06T04:31:49;12.02;;;4.63;;
78901;SDS011;70441;44.758;37.686;2023-08-06T04:32:58;10.38;;;5.18;;
78901;SDS011;70441;44.758;37.686;2023-08-06T04:34:01;10.77;;;4.85;;
78901;SDS011;70441;44.758;37.686;2023-08-06T04:35:03;10.70;;;4.75;;
78901;SDS011;70441;44.758;37.686;2023-08-06T04:36:06;9.32;;;4.85;;
78901;SDS011;70441;44.758;37.686;2023-08-06T04:37:08;11.30;;;4.70;;
78901;SDS011;70441;44.758;37.686;2023-08-06T04:38:09;15.75;;;5.38;;
78901;SDS011;70441;44.758;37.686;2023-08-06T04:39:11;11.73;;;5.05;;
78901;SDS011;70441;44.758;37.686;2023-08-06T04:40:12;11.77;;;5.35;;
78901;SDS011;70441;44.758;37.686;2023-08-06T04:41:14;11.13;;;4.70;;
78901;SDS011;70441;44.758;37.686;2023-08-06T04:42:15;9.88;;;5.13;;
78901;SDS011;70441;44.758;37.686;2023-08-06T04:43:17;13.43;;;5.45;;
78901;SDS011;70441;44.758;37.686;2023-08-06T04:44:18;13.52;;;5.18;;
78901;SDS011;70441;44.758;37.686;2023-08-06T04:45:19;15.43;;;5.50;;
78901;SDS011;70441;44.758;37.686;2023-08-06T04:46:21;15.50;;;4.70;;
78901;SDS011;70441;44.758;37.686;2023-08-06T04:47:22;11.27;;;5.22;;
78901;SDS011;70441;44.758;37.686;2023-08-06T04:48:44;18.48;;;5.22;;
78901;SDS011;70441;44.758;37.686;2023-08-06T04:49:45;11.38;;;5.40;;
78901;SDS011;70441;44.758;37.686;2023-08-06T04:50:46;16.45;;;5.50;;
78901;SDS011;70441;44.758;37.686;2023-08-06T04:51:48;17.20;;;5.55;;
78901;SDS011;70441;44.758;37.686;2023-08-06T04:52:50;16.52;;;5.50;;
78901;SDS011;70441;44.758;37.686;2023-08-06T04:53:51;18.98;;;5.35;;
78901;SDS011;70441;44.758;37.686;2023-08-06T04:54:52;13.70;;;5.32;;
78901;SDS011;70441;44.758;37.686;2023-08-06T04:55:54;12.70;;;5.20;;
78901;SDS011;70441;44.758;37.686;2023-08-06T04:56:55;11.98;;;5.30;;
78901;SDS011;70441;44.758;37.686;2023-08-06T04:57:57;12.30;;;4.90;;
78901;SDS011;70441;44.758;37.686;2023-08-06T04:58:58;12.40;;;5.10;;
78901;SDS011;70441;44.758;37.686;2023-08-06T05:00:00;9.70;;;5.07;;
78901;SDS011;70441;44.758;37.686;2023-08-06T05:01:01;18.02;;;5.32;;
78901;SDS011;70441;44.758;37.686;2023-08-06T05:02:03;13.65;;;4.93;;
78901;SDS011;70441;44.758;37.686;2023-08-06T05:03:05;25.05;;;6.72;;
78901;SDS011;70441;44.758;37.686;2023-08-06T05:04:07;13.45;;;5.65;;
78901;SDS011;70441;44.758;37.686;2023-08-06T05:05:09;13.32;;;5.43;;
78901;SDS011;70441;44.758;37.686;2023-08-06T05:06:10;17.85;;;5.90;;
78901;SDS011;70441;44.758;37.686;2023-08-06T05:07:11;24.80;;;5.60;;
78901;SDS011;70441;44.758;37.686;2023-08-06T05:08:15;16.80;;;6.10;;
78901;SDS011;70441;44.758;37.686;2023-08-06T05:09:17;16.45;;;5.38;;
78901;SDS011;70441;44.758;37.686;2023-08-06T05:10:18;12.43;;;5.30;;
78901;SDS011;70441;44.758;37.686;2023-08-06T05:11:20;13.15;;;4.70;;
78901;SDS011;70441;44.758;37.686;2023-08-06T05:12:21;13.35;;;4.88;;
78901;SDS011;70441;44.758;37.686;2023-08-06T05:13:22;14.85;;;5.45;;
78901;SDS011;70441;44.758;37.686;2023-08-06T05:14:24;11.48;;;5.13;;
78901;SDS011;70441;44.758;37.686;2023-08-06T05:15:25;15.80;;;5.18;;
78901;SDS011;70441;44.758;37.686;2023-08-06T05:16:26;10.43;;;4.82;;
78901;SDS011;70441;44.758;37.686;2023-08-06T05:17:28;10.75;;;5.05;;
78901;SDS011;70441;44.758;37.686;2023-08-06T05:18:29;12.27;;;4.75;;
78901;SDS011;70441;44.758;37.686;2023-08-06T05:19:32;12.18;;;5.35;;
78901;SDS011;70441;44.758;37.686;2023-08-06T05:20:54;12.48;;;5.22;;
78901;SDS011;70441;44.758;37.686;2023-08-06T05:21:56;13.10;;;4.85;;
78901;SDS011;70441;44.758;37.686;2023-08-06T05:22:57;10.38;;;4.70;;
78901;SDS011;70441;44.758;37.686;2023-08-06T05:24:19;15.15;;;4.88;;
78901;SDS011;70441;44.758;37.686;2023-08-06T05:25:20;14.23;;;4.85;;
78901;SDS011;70441;44.758;37.686;2023-08-06T05:26:21;16.00;;;5.05;;
78901;SDS011;70441;44.758;37.686;2023-08-06T05:27:22;11.27;;;4.93;;
78901;SDS011;70441;44.758;37.686;2023-08-06T05:28:25;9.93;;;5.07;;
78901;SDS011;70441;44.758;37.686;2023-08-06T05:29:26;10.18;;;4.85;;
78901;SDS011;70441;44.758;37.686;2023-08-06T05:30:28;11.90;;;4.75;;
78901;SDS011;70441;44.758;37.686;2023-08-06T05:31:29;11.27;;;4.50;;
78901;SDS011;70441;44.758;37.686;2023-08-06T05:32:36;11.50;;;5.45;;
78901;SDS011;70441;44.758;37.686;2023-08-06T05:33:38;9.00;;;4.70;;
78901;SDS011;70441;44.758;37.686;2023-08-06T05:34:39;14.43;;;5.65;;
78901;SDS011;70441;44.758;37.686;2023-08-06T05:36:02;12.40;;;4.60;;
78901;SDS011;70441;44.758;37.686;2023-08-06T05:37:04;17.75;;;5.03;;
78901;SDS011;70441;44.758;37.686;2023-08-06T05:38:05;12.50;;;4.85;;
78901;SDS011;70441;44.758;37.686;2023-08-06T05:39:07;11.57;;;5.53;;
78901;SDS011;70441;44.758;37.686;2023-08-06T05:40:08;13.55;;;4.88;;
78901;SDS011;70441;44.758;37.686;2023-08-06T05:41:10;9.32;;;4.88;;
78901;SDS011;70441;44.758;37.686;2023-08-06T05:42:12;11.55;;;4.45;;
78901;SDS011;70441;44.758;37.686;2023-08-06T05:43:13;10.10;;;5.93;;
78901;SDS011;70441;44.758;37.686;2023-08-06T05:44:14;8.25;;;4.70;;
78901;SDS011;70441;44.758;37.686;2023-08-06T05:45:33;7.80;;;4.70;;
78901;SDS011;70441;44.758;37.686;2023-08-06T05:46:54;7.10;;;4.70;;
78901;SDS011;70441;44.758;37.686;2023-08-06T05:47:56;10.80;;;4.40;;
78901;SDS011;70441;44.758;37.686;2023-08-06T05:48:59;12.25;;;5.03;;
78901;SDS011;70441;44.758;37.686;2023-08-06T05:50:00;13.13;;;4.38;;
78901;SDS011;70441;44.758;37.686;2023-08-06T05:51:01;7.85;;;4.38;;
78901;SDS011;70441;44.758;37.686;2023-08-06T05:52:02;9.82;;;4.50;;
78901;SDS011;70441;44.758;37.686;2023-08-06T05:53:27;8.27;;;4.93;;
78901;SDS011;70441;44.758;37.686;2023-08-06T05:54:28;14.00;;;5.53;;
78901;SDS011;70441;44.758;37.686;2023-08-06T05:55:29;11.25;;;4.53;;
78901;SDS011;70441;44.758;37.686;2023-08-06T05:56:39;17.10;;;6.05;;
78901;SDS011;70441;44.758;37.686;2023-08-06T05:57:42;10.55;;;4.40;;
78901;SDS011;70441;44.758;37.686;2023-08-06T05:58:44;8.88;;;4.60;;
78901;SDS011;70441;44.758;37.686;2023-08-06T05:59:47;11.80;;;4.57;;
78901;SDS011;70441;44.758;37.686;2023-08-06T06:01:08;11.65;;;5.32;;
78901;SDS011;70441;44.758;37.686;2023-08-06T06:02:09;13.25;;;5.25;;
78901;SDS011;70441;44.758;37.686;2023-08-06T06:03:11;9.98;;;4.30;;
78901;SDS011;70441;44.758;37.686;2023-08-06T06:04:12;11.15;;;4.68;;
78901;SDS011;70441;44.758;37.686;2023-08-06T06:05:13;7.50;;;4.13;;
78901;SDS011;70441;44.758;37.686;2023-08-06T06:06:35;10.00;;;4.47;;
78901;SDS011;70441;44.758;37.686;2023-08-06T06:07:36;17.25;;;5.13;;
78901;SDS011;70441;44.758;37.686;2023-08-06T06:08:39;9.65;;;4.25;;
78901;SDS011;70441;44.758;37.686;2023-08-06T06:09:40;11.20;;;4.20;;
78901;SDS011;70441;44.758;37.686;2023-08-06T06:10:42;13.00;;;5.00;;
78901;SDS011;70441;44.758;37.686;2023-08-06T06:11:44;10.45;;;5.20;;
78901;SDS011;70441;44.758;37.686;2023-08-06T06:12:46;9.68;;;4.50;;
78901;SDS011;70441;44.758;37.686;2023-08-06T06:13:51;8.48;;;4.30;;
78901;SDS011;70441;44.758;37.686;2023-08-06T06:14:52;12.13;;;4.65;;
78901;SDS011;70441;44.758;37.686;2023-08-06T06:15:54;10.93;;;4.95;;
78901;SDS011;70441;44.758;37.686;2023-08-06T06:16:56;12.10;;;4.75;;
78901;SDS011;70441;44.758;37.686;2023-08-06T06:17:58;11.95;;;4.18;;
78901;SDS011;70441;44.758;37.686;2023-08-06T06:20:01;11.65;;;4.20;;
78901;SDS011;70441;44.758;37.686;2023-08-06T06:21:04;14.77;;;5.95;;
78901;SDS011;70441;44.758;37.686;2023-08-06T06:22:07;12.95;;;4.40;;